Boynton Beach, Florida
Current Conditions -  °F | °C
As of 9:50 PM on Sunday 21 Dec 2014 (Local Time) from KBCT Reporting Station
Broken Clouds Broken Clouds  
Wind Chill: 73°   Ceiling: 6500
Heat Index: 73°   Visibility: 10mi
Dew Point: 64°   Wind: 7mph
Humidity: 73%   Direction: 160°SSE
Pressure: 30.06"   Gusts: NA
Location:  26.53°N, 80.06°W
Report Text: KBCT 220250Z 16006KT 10SM SCT026 BKN065 23/18 A3006
Loading
Personal Weather Stations






























Interactive Weather Map New forecast layout! Learn more

10-Day Weather Forecast

Advertisements
Track Severe Weather on mobile